4XCAD LLHZ-LLHZ

Flight info

Callsign 4XCAD
Flight time 0h 2m
Altitude 800
Route CIRCUITS
Aircraft C172/L-V/N

Departure

Time 2026-04-12 18:43
Airport Herzliya Airport (LLHZ)

Arrival

Time 2026-04-12 18:46
Airport Herzliya Airport (LLHZ)
Time Latitude Longitude Altitude Speed Heading
2026-04-12 18:23 32.17892 34.83744 120 ft 0 kts 111°
2026-04-12 18:37 32.17894 34.83753 121 ft 2 kts 36°
2026-04-12 18:37 32.17909 34.83751 121 ft 3 kts 309°
2026-04-12 18:37 32.17941 34.83642 117 ft 22 kts 289°
2026-04-12 18:38 32.17993 34.83466 109 ft 19 kts 290°
2026-04-12 18:38 32.18040 34.83304 104 ft 24 kts 289°
2026-04-12 18:38 32.18090 34.83123 101 ft 23 kts 288°
2026-04-12 18:38 32.18138 34.82986 96 ft 2 kts 308°
2026-04-12 18:39 32.18147 34.82975 96 ft 0 kts 321°
2026-04-12 18:41 32.18166 34.82976 96 ft 6 kts 51°
2026-04-12 18:41 32.18167 34.82998 97 ft 0 kts 102°
2026-04-12 18:42 32.18103 34.83225 103 ft 61 kts 110°
2026-04-12 18:42 32.17947 34.83747 333 ft 70 kts 108°
2026-04-12 18:42 32.17836 34.84306 598 ft 73 kts 97°
2026-04-12 18:43 32.18715 34.85373 1089 ft 78 kts 321°
2026-04-12 18:43 32.19001 34.84796 961 ft 83 kts 296°
2026-04-12 18:43 32.19255 34.84190 817 ft 81 kts 296°
2026-04-12 18:44 32.19496 34.83610 746 ft 79 kts 296°
2026-04-12 18:44 32.19721 34.83033 724 ft 67 kts 292°
2026-04-12 18:44 32.19872 34.82514 635 ft 68 kts 285°
2026-04-12 18:44 32.19732 34.82027 558 ft 70 kts 219°
2026-04-12 18:45 32.19231 34.81745 449 ft 86 kts 198°
2026-04-12 18:45 32.18661 34.81641 502 ft 80 kts 162°
2026-04-12 18:45 32.18392 34.82196 371 ft 89 kts 98°
2026-04-12 18:45 32.18214 34.82847 181 ft 76 kts 109°
2026-04-12 18:46 32.18074 34.83306 104 ft 45 kts 109°
2026-04-12 18:46 32.17941 34.83778 186 ft 75 kts 107°
2026-04-12 18:46 32.17803 34.84413 405 ft 86 kts 101°
2026-04-12 18:46 32.17812 34.85096 726 ft 80 kts 48°
2026-04-12 18:47 32.18342 34.85400 758 ft 91 kts 13°
2026-04-12 18:47 32.18816 34.85052 800 ft 93 kts 301°
2026-04-12 18:47 32.19117 34.84316 741 ft 104 kts 293°
2026-04-12 18:47 32.19389 34.83505 760 ft 107 kts 290°
2026-04-12 18:48 32.19622 34.82713 812 ft 87 kts 289°
2026-04-12 18:48 32.19696 34.82085 706 ft 68 kts 246°
2026-04-12 18:48 32.19319 34.81771 475 ft 65 kts 199°
2026-04-12 18:48 32.18874 34.81632 382 ft 68 kts 191°
2026-04-12 18:49 32.18515 34.81881 356 ft 71 kts 118°
2026-04-12 18:49 32.18339 34.82443 280 ft 69 kts 109°
2026-04-12 18:49 32.18185 34.82950 124 ft 57 kts 111°
2026-04-12 18:49 32.18069 34.83334 104 ft 49 kts 108°
2026-04-12 18:50 32.17907 34.83881 194 ft 84 kts 109°
2026-04-12 18:50 32.17728 34.84534 510 ft 80 kts 105°
2026-04-12 18:50 32.17789 34.85073 828 ft 69 kts 35°
2026-04-12 18:50 32.18346 34.85336 731 ft 96 kts 16°
2026-04-12 18:51 32.18828 34.85057 894 ft 91 kts 299°
2026-04-12 18:51 32.19080 34.84325 865 ft 93 kts 289°
2026-04-12 18:51 32.19270 34.83569 708 ft 107 kts 284°
2026-04-12 18:51 32.19452 34.82701 700 ft 98 kts 284°
2026-04-12 18:52 32.19521 34.82030 711 ft 73 kts 248°
2026-04-12 18:52 32.19116 34.81699 602 ft 70 kts 197°
2026-04-12 18:52 32.18658 34.81662 480 ft 63 kts 159°
2026-04-12 18:52 32.18428 34.82093 322 ft 67 kts 104°
2026-04-12 18:53 32.18279 34.82618 179 ft 66 kts 110°
2026-04-12 18:53 32.18140 34.83090 104 ft 55 kts 109°
2026-04-12 18:53 32.18050 34.83407 106 ft 29 kts 109°
2026-04-12 18:53 32.17990 34.83585 114 ft 11 kts 118°
2026-04-12 18:54 32.17943 34.83597 115 ft 6 kts 180°
2026-04-12 18:54 32.17938 34.83593 115 ft 0 kts 338°
2026-04-12 18:54 32.17939 34.83593 115 ft 0 kts 353°